createdAt,value
2022-10-23T00:00:00.260Z,9.50
2022-10-23T00:02:27.941Z,10.98
2022-10-23T00:04:56.028Z,13.55
2022-10-23T00:07:23.768Z,10.90
2022-10-23T00:09:52.478Z,10.48
2022-10-23T00:12:20.103Z,13.20
2022-10-23T00:14:48.191Z,11.20
2022-10-23T00:17:16.318Z,12.52
2022-10-23T00:19:44.329Z,9.75
2022-10-23T00:22:12.017Z,11.25
2022-10-23T00:24:40.088Z,10.87
2022-10-23T00:27:07.957Z,11.43
2022-10-23T00:29:36.075Z,10.73
2022-10-23T00:32:04.381Z,11.40
2022-10-23T00:34:32.415Z,12.30
2022-10-23T00:37:00.114Z,11.73
2022-10-23T00:39:28.642Z,16.65
2022-10-23T00:41:56.389Z,12.75
2022-10-23T00:44:24.507Z,10.77
2022-10-23T00:46:52.102Z,10.45
2022-10-23T00:49:20.747Z,10.10
2022-10-23T00:52:16.527Z,11.98
2022-10-23T00:54:44.390Z,12.05
2022-10-23T00:57:15.361Z,11.68
2022-10-23T00:59:43.361Z,13.32
2022-10-23T01:02:11.425Z,13.63
2022-10-23T01:04:39.849Z,19.10
2022-10-23T01:07:45.741Z,14.55
2022-10-23T01:10:26.434Z,15.02
2022-10-23T01:13:27.993Z,14.93
2022-10-23T01:16:01.535Z,16.50
2022-10-23T01:18:45.986Z,17.05
2022-10-23T01:21:22.619Z,18.45
2022-10-23T01:24:19.798Z,20.60
2022-10-23T01:27:10.180Z,17.27
2022-10-23T01:29:50.835Z,19.27
2022-10-23T01:32:48.514Z,19.13
2022-10-23T01:35:25.758Z,19.15
2022-10-23T01:38:14.716Z,19.17
2022-10-23T01:40:54.090Z,15.27
2022-10-23T01:43:28.795Z,14.40
2022-10-23T01:46:01.693Z,16.17
2022-10-23T01:48:32.388Z,16.40
2022-10-23T01:51:05.370Z,16.67
2022-10-23T01:53:38.794Z,17.27
2022-10-23T01:56:12.547Z,17.77
2022-10-23T01:58:46.005Z,16.60
2022-10-23T02:01:18.736Z,21.33
2022-10-23T02:03:52.461Z,22.10
2022-10-23T02:06:20.843Z,20.65
2022-10-23T02:08:48.795Z,29.80
2022-10-23T02:11:21.288Z,25.65
2022-10-23T02:14:12.209Z,22.00
2022-10-23T02:16:52.184Z,19.85
2022-10-23T02:19:36.502Z,25.80
2022-10-23T02:22:24.390Z,14.90
2022-10-23T02:24:58.697Z,16.95
2022-10-23T02:27:49.362Z,18.98
2022-10-23T02:30:20.481Z,20.27
2022-10-23T02:33:09.679Z,14.45
2022-10-23T02:35:37.560Z,11.87
2022-10-23T02:38:42.609Z,12.05
2022-10-23T02:41:19.691Z,17.00
2022-10-23T02:44:10.823Z,20.77
2022-10-23T02:46:50.697Z,20.45
2022-10-23T02:49:37.119Z,17.27
2022-10-23T02:52:08.790Z,18.52
2022-10-23T02:55:09.174Z,12.35
2022-10-23T02:58:11.437Z,15.82
2022-10-23T03:00:50.061Z,17.85
2022-10-23T03:03:24.037Z,17.30
2022-10-23T03:05:52.930Z,13.95
2022-10-23T03:08:20.704Z,12.75
2022-10-23T03:13:23.721Z,11.60
2022-10-23T03:15:51.803Z,15.17
2022-10-23T03:18:20.333Z,11.52
2022-10-23T03:20:51.446Z,12.73
2022-10-23T03:23:22.854Z,11.50
2022-10-23T03:25:50.907Z,10.20
2022-10-23T03:28:32.222Z,10.87
2022-10-23T03:31:02.459Z,13.70
2022-10-23T03:33:34.067Z,12.93
2022-10-23T03:36:10.445Z,10.07
2022-10-23T03:38:38.337Z,9.98
2022-10-23T03:41:06.611Z,9.47
2022-10-23T03:43:34.334Z,11.93
2022-10-23T03:46:02.630Z,12.27
2022-10-23T03:48:30.419Z,11.80
2022-10-23T03:51:00.026Z,14.60
2022-10-23T03:53:27.966Z,12.47
2022-10-23T03:55:55.906Z,11.95
2022-10-23T03:58:23.603Z,15.23
2022-10-23T04:00:52.212Z,12.57
2022-10-23T04:03:19.977Z,14.60
2022-10-23T04:05:50.034Z,12.67
2022-10-23T04:08:22.240Z,13.05
2022-10-23T04:10:55.281Z,13.20
2022-10-23T04:13:37.889Z,11.95
2022-10-23T04:16:06.094Z,15.27
2022-10-23T04:18:33.698Z,29.67
2022-10-23T04:21:01.919Z,13.63
2022-10-23T04:23:29.881Z,14.50
2022-10-23T04:25:58.495Z,13.75
2022-10-23T04:28:27.307Z,23.77
2022-10-23T04:30:56.124Z,24.63
2022-10-23T04:33:24.504Z,20.23
2022-10-23T04:35:53.078Z,13.25
2022-10-23T04:38:20.983Z,13.95
2022-10-23T04:40:50.917Z,12.73
2022-10-23T04:43:22.465Z,15.67
2022-10-23T04:45:50.619Z,15.82
2022-10-23T04:48:18.413Z,26.45
2022-10-23T04:51:12.581Z,36.40
2022-10-23T04:53:55.334Z,22.33
2022-10-23T04:56:42.712Z,21.27
2022-10-23T04:59:15.597Z,17.88
2022-10-23T05:01:44.094Z,16.45
2022-10-23T05:04:12.177Z,17.33
2022-10-23T05:06:59.145Z,19.05
2022-10-23T05:09:45.381Z,17.03
2022-10-23T05:12:48.659Z,18.10
2022-10-23T05:15:16.664Z,12.73
2022-10-23T05:17:47.080Z,13.15
2022-10-23T05:20:19.693Z,13.80
2022-10-23T05:22:51.520Z,14.33
2022-10-23T05:25:22.105Z,14.13
2022-10-23T05:27:54.426Z,12.27
2022-10-23T05:30:22.757Z,11.07
2022-10-23T05:32:50.856Z,13.52
2022-10-23T05:35:24.107Z,11.63
2022-10-23T05:37:56.203Z,13.02
2022-10-23T05:40:26.704Z,10.70
2022-10-23T05:43:00.998Z,12.55
2022-10-23T05:45:49.360Z,14.98
2022-10-23T05:48:40.130Z,11.60
2022-10-23T05:51:26.535Z,12.95
2022-10-23T05:54:02.183Z,11.60
2022-10-23T05:56:48.673Z,10.57
2022-10-23T05:59:23.214Z,10.80
2022-10-23T06:02:10.983Z,9.87
2022-10-23T06:04:50.279Z,12.20
2022-10-23T06:07:36.659Z,10.65
2022-10-23T06:10:07.521Z,10.57
2022-10-23T06:12:40.259Z,10.55
2022-10-23T06:15:11.287Z,13.00
2022-10-23T06:18:02.627Z,10.18
2022-10-23T06:20:37.562Z,12.20
2022-10-23T06:23:19.445Z,10.77
2022-10-23T06:26:07.533Z,14.07
2022-10-23T06:28:52.813Z,11.27
2022-10-23T06:31:23.901Z,13.07
2022-10-23T06:33:52.251Z,14.50
2022-10-23T06:36:20.304Z,13.80
2022-10-23T06:38:49.747Z,11.25
2022-10-23T06:41:22.237Z,12.10
2022-10-23T06:43:55.472Z,12.13
2022-10-23T06:46:30.534Z,12.68
2022-10-23T06:49:24.407Z,11.00
2022-10-23T06:51:54.949Z,10.50
2022-10-23T06:54:24.510Z,12.27
2022-10-23T06:56:53.649Z,16.83
2022-10-23T06:59:34.155Z,14.70
2022-10-23T07:02:02.396Z,16.15
2022-10-23T07:04:31.448Z,15.57
2022-10-23T07:07:08.413Z,11.23
2022-10-23T07:09:44.855Z,15.50
2022-10-23T07:12:24.645Z,14.13
2022-10-23T07:15:07.248Z,16.13
2022-10-23T07:17:35.390Z,16.95
2022-10-23T07:20:04.219Z,17.93
2022-10-23T07:22:32.306Z,21.10
2022-10-23T07:25:10.104Z,17.98
2022-10-23T07:27:39.958Z,16.08
2022-10-23T07:30:10.603Z,15.02
2022-10-23T07:32:45.717Z,16.60
2022-10-23T07:35:34.296Z,14.85
2022-10-23T07:38:09.117Z,14.88
2022-10-23T07:40:42.681Z,14.93
2022-10-23T07:43:19.730Z,16.17
2022-10-23T07:45:49.719Z,10.47
2022-10-23T07:48:30.080Z,26.65
2022-10-23T07:51:03.313Z,14.10
2022-10-23T07:53:32.135Z,16.35
2022-10-23T07:56:18.754Z,12.82
2022-10-23T07:59:05.527Z,12.10
2022-10-23T08:01:37.303Z,10.55
2022-10-23T08:04:06.439Z,8.98
2022-10-23T08:06:36.740Z,8.40
2022-10-23T08:09:07.006Z,14.73
2022-10-23T08:11:38.611Z,9.10
2022-10-23T08:14:09.104Z,12.05
2022-10-23T08:16:39.701Z,7.85
2022-10-23T08:19:19.734Z,7.35
2022-10-23T08:21:50.418Z,10.95
2022-10-23T08:24:18.501Z,8.73
2022-10-23T08:26:52.010Z,8.85
2022-10-23T08:29:28.462Z,9.52
2022-10-23T08:31:57.732Z,8.45
2022-10-23T08:34:33.850Z,7.68
2022-10-23T08:37:03.455Z,7.27
2022-10-23T08:39:33.260Z,8.77
2022-10-23T08:42:20.961Z,10.05
2022-10-23T08:45:05.807Z,9.48
2022-10-23T08:47:46.232Z,6.25
2022-10-23T08:50:25.715Z,6.67
2022-10-23T08:53:20.786Z,6.20
2022-10-23T08:56:19.175Z,6.55
2022-10-23T08:59:11.652Z,5.32
2022-10-23T09:01:46.914Z,5.30
2022-10-23T09:04:16.104Z,5.47
2022-10-23T09:06:56.456Z,7.25
2022-10-23T09:09:52.013Z,5.22
2022-10-23T09:12:25.329Z,5.10
2022-10-23T09:14:59.803Z,6.55
2022-10-23T09:17:30.970Z,5.97
2022-10-23T09:20:26.495Z,12.43
2022-10-23T09:23:18.266Z,7.47
2022-10-23T09:25:48.733Z,6.00
2022-10-23T09:28:21.037Z,5.38
2022-10-23T09:30:52.549Z,6.10
2022-10-23T09:33:27.096Z,6.90
2022-10-23T09:36:04.162Z,7.80
2022-10-23T09:38:38.879Z,6.25
2022-10-23T09:41:15.018Z,6.53
2022-10-23T09:43:43.521Z,6.00
2022-10-23T09:46:12.281Z,5.13
2022-10-23T09:48:42.690Z,5.65
2022-10-23T09:51:21.441Z,6.22
2022-10-23T09:53:55.642Z,5.30
2022-10-23T09:56:26.299Z,4.63
2022-10-23T09:59:03.396Z,4.82
2022-10-23T10:01:45.681Z,5.20
2022-10-23T10:04:39.692Z,5.07
2022-10-23T10:07:20.187Z,6.03
2022-10-23T10:09:49.117Z,6.90
2022-10-23T10:12:28.398Z,4.60
2022-10-23T10:15:15.309Z,5.22
2022-10-23T10:17:52.233Z,5.35
2022-10-23T10:20:50.288Z,4.30
2022-10-23T10:23:24.326Z,6.83
2022-10-23T10:25:52.573Z,4.32
2022-10-23T10:28:31.152Z,4.70
2022-10-23T10:31:19.094Z,4.85
2022-10-23T10:34:37.131Z,7.03
2022-10-23T10:37:43.924Z,6.77
2022-10-23T10:40:24.795Z,6.40
2022-10-23T10:43:23.642Z,6.82
2022-10-23T10:46:33.242Z,7.25
2022-10-23T10:49:24.450Z,13.93
2022-10-23T10:52:30.711Z,5.80
2022-10-23T10:55:17.267Z,7.18
2022-10-23T10:57:54.975Z,5.53
2022-10-23T11:00:25.103Z,5.63
2022-10-23T11:03:03.007Z,8.40
2022-10-23T11:05:38.746Z,12.90
2022-10-23T11:08:14.586Z,6.10
2022-10-23T11:11:49.008Z,4.80
2022-10-23T11:15:07.108Z,5.00
2022-10-23T11:17:41.087Z,6.95
2022-10-23T11:20:36.362Z,4.87
2022-10-23T11:23:48.535Z,3.78
2022-10-23T11:26:47.636Z,4.53
2022-10-23T11:29:21.624Z,4.40
2022-10-23T11:32:52.650Z,6.03
2022-10-23T11:35:52.329Z,5.93
2022-10-23T11:38:24.754Z,5.03
2022-10-23T11:40:56.324Z,5.55
2022-10-23T11:43:33.967Z,6.85
2022-10-23T11:46:25.785Z,9.45
2022-10-23T11:48:56.235Z,6.33
2022-10-23T11:51:38.354Z,6.15
2022-10-23T11:54:12.455Z,7.15
2022-10-23T11:57:10.326Z,6.32
2022-10-23T11:59:52.191Z,5.90
2022-10-23T12:02:29.573Z,5.40
2022-10-23T12:05:04.574Z,6.38
2022-10-23T12:07:37.331Z,7.00
2022-10-23T12:10:19.678Z,8.02
2022-10-23T12:13:01.218Z,5.97
2022-10-23T12:15:30.669Z,4.83
2022-10-23T12:18:16.407Z,5.65
2022-10-23T12:20:47.197Z,3.40
2022-10-23T12:23:32.131Z,4.75
2022-10-23T12:26:18.200Z,4.07
2022-10-23T12:28:51.498Z,4.63
2022-10-23T12:31:34.585Z,5.50
2022-10-23T12:34:46.996Z,3.70
2022-10-23T12:37:43.670Z,5.03
2022-10-23T12:40:12.804Z,5.75
2022-10-23T12:42:41.955Z,6.77
2022-10-23T12:45:18.599Z,3.42
2022-10-23T12:47:47.817Z,3.72
2022-10-23T12:50:31.388Z,3.08
2022-10-23T12:53:05.220Z,5.25
2022-10-23T12:58:35.259Z,6.38
2022-10-23T13:01:07.315Z,5.43
2022-10-23T13:03:35.837Z,4.38
2022-10-23T13:06:05.675Z,4.63
2022-10-23T13:08:48.295Z,5.33
2022-10-23T13:11:48.716Z,4.40
2022-10-23T13:14:57.790Z,4.15
2022-10-23T13:17:41.946Z,3.35
2022-10-23T13:20:31.890Z,4.38
2022-10-23T13:23:00.760Z,2.70
2022-10-23T13:25:30.416Z,3.28
2022-10-23T13:28:25.209Z,2.92
2022-10-23T13:31:21.919Z,5.60
2022-10-23T13:33:59.501Z,6.00
2022-10-23T13:36:34.890Z,5.33
2022-10-23T13:39:10.779Z,4.72
2022-10-23T13:41:41.640Z,3.90
2022-10-23T13:44:14.041Z,4.40
2022-10-23T13:46:43.130Z,8.55
2022-10-23T13:49:11.111Z,4.70
2022-10-23T13:51:52.005Z,3.53
2022-10-23T13:54:25.822Z,3.85
2022-10-23T13:56:55.264Z,4.28
2022-10-23T13:59:23.669Z,2.92
2022-10-23T14:01:52.581Z,3.30
2022-10-23T14:04:21.549Z,6.18
2022-10-23T14:06:49.324Z,3.03
2022-10-23T14:09:18.734Z,3.22
2022-10-23T14:11:46.501Z,5.10
2022-10-23T14:14:15.975Z,3.50
2022-10-23T14:16:44.465Z,4.20
2022-10-23T14:19:12.491Z,3.35
2022-10-23T14:21:40.188Z,3.20
2022-10-23T14:24:09.524Z,3.40
2022-10-23T14:26:38.409Z,4.90
2022-10-23T14:29:09.917Z,5.55
2022-10-23T14:31:41.814Z,5.80
2022-10-23T14:34:09.732Z,6.07
2022-10-23T14:36:49.452Z,5.25
2022-10-23T14:39:18.920Z,4.23
2022-10-23T14:41:46.597Z,5.07
2022-10-23T14:44:14.757Z,4.35
2022-10-23T14:46:42.612Z,4.05
2022-10-23T14:49:10.696Z,3.75
2022-10-23T14:51:38.625Z,5.20
2022-10-23T14:54:08.073Z,3.38
2022-10-23T14:56:42.234Z,4.38
2022-10-23T14:59:11.136Z,5.78
2022-10-23T15:01:43.876Z,4.80
2022-10-23T15:04:15.077Z,3.77
2022-10-23T15:06:43.196Z,4.82
2022-10-23T15:09:11.392Z,4.20
2022-10-23T15:11:39.169Z,4.07
2022-10-23T15:14:08.027Z,3.60
2022-10-23T15:16:41.726Z,6.00
2022-10-23T15:19:15.172Z,3.60
2022-10-23T15:21:47.742Z,3.75
2022-10-23T15:24:17.120Z,4.57
2022-10-23T15:26:45.338Z,4.72
2022-10-23T15:29:15.076Z,4.53
2022-10-23T15:31:48.377Z,3.88
2022-10-23T15:34:22.961Z,4.50
2022-10-23T15:36:51.756Z,4.85
2022-10-23T15:39:23.111Z,5.53
2022-10-23T15:41:53.038Z,6.70
2022-10-23T15:44:22.895Z,6.30
2022-10-23T15:46:52.014Z,4.90
2022-10-23T15:49:20.397Z,6.10
2022-10-23T15:51:48.272Z,6.45
2022-10-23T15:54:19.356Z,5.20
2022-10-23T15:56:49.725Z,7.03
2022-10-23T15:59:20.030Z,7.20
2022-10-23T16:01:49.339Z,11.18
2022-10-23T16:04:18.278Z,12.23
2022-10-23T16:06:46.305Z,13.77
2022-10-23T16:09:14.824Z,18.13
2022-10-23T16:11:43.712Z,14.68
2022-10-23T16:14:16.415Z,18.38
2022-10-23T16:16:44.610Z,63.03
2022-10-23T16:19:12.675Z,73.97
2022-10-23T16:21:41.377Z,45.00
2022-10-23T16:24:10.275Z,28.25
2022-10-23T16:26:38.520Z,32.03
2022-10-23T16:29:08.423Z,20.95
2022-10-23T16:31:36.619Z,33.63
2022-10-23T16:34:05.877Z,26.02
2022-10-23T16:36:34.013Z,26.67
2022-10-23T16:39:12.564Z,19.02
2022-10-23T16:41:58.649Z,21.65
2022-10-23T16:44:35.446Z,33.53
2022-10-23T16:47:06.269Z,24.08
2022-10-23T16:49:34.801Z,23.48
2022-10-23T16:52:03.194Z,34.65
2022-10-23T16:54:31.266Z,29.25
2022-10-23T16:56:59.081Z,34.37
2022-10-23T16:59:27.601Z,22.80
2022-10-23T17:01:55.337Z,19.20
2022-10-23T17:04:23.669Z,16.30
2022-10-23T17:06:51.354Z,14.70
2022-10-23T17:09:19.695Z,15.73
2022-10-23T17:11:48.327Z,13.13
2022-10-23T17:14:19.091Z,18.63
2022-10-23T17:16:51.351Z,11.85
2022-10-23T17:22:11.432Z,18.00
2022-10-23T17:24:40.797Z,14.57
2022-10-23T17:27:09.769Z,12.25
2022-10-23T17:29:38.916Z,14.43
2022-10-23T17:32:07.038Z,18.02
2022-10-23T17:34:35.104Z,21.47
2022-10-23T17:37:02.863Z,22.52
2022-10-23T17:39:31.024Z,24.73
2022-10-23T17:41:59.003Z,22.35
2022-10-23T17:44:27.204Z,21.58
2022-10-23T17:46:56.087Z,20.23
2022-10-23T17:49:25.503Z,21.88
2022-10-23T17:51:55.411Z,21.45
2022-10-23T17:54:25.154Z,17.95
2022-10-23T17:56:52.955Z,19.17
2022-10-23T17:59:20.968Z,18.87
2022-10-23T18:01:49.909Z,17.17
2022-10-23T18:04:19.722Z,17.48
2022-10-23T18:07:41.575Z,16.52
2022-10-23T18:10:10.709Z,20.55
2022-10-23T18:12:38.478Z,18.13
2022-10-23T18:15:08.160Z,20.90
2022-10-23T18:17:35.891Z,15.45
2022-10-23T18:20:04.466Z,16.73
2022-10-23T18:22:33.508Z,16.38
2022-10-23T18:25:03.649Z,20.10
2022-10-23T18:27:31.485Z,24.25
2022-10-23T18:30:01.153Z,18.95
2022-10-23T18:32:30.343Z,17.15
2022-10-23T18:34:58.903Z,14.85
2022-10-23T18:37:28.881Z,15.57
2022-10-23T18:40:01.029Z,13.15
2022-10-23T18:42:29.051Z,13.75
2022-10-23T18:44:57.145Z,13.13
2022-10-23T18:47:24.778Z,13.25
2022-10-23T18:49:52.747Z,14.10
2022-10-23T18:52:20.483Z,11.80
2022-10-23T18:54:48.563Z,15.35
2022-10-23T18:57:17.310Z,13.07
2022-10-23T18:59:46.695Z,13.85
2022-10-23T19:02:14.851Z,11.23
2022-10-23T19:04:45.676Z,15.57
2022-10-23T19:07:13.509Z,13.45
2022-10-23T19:09:43.215Z,15.38
2022-10-23T19:12:11.751Z,12.57
2022-10-23T19:14:40.606Z,15.63
2022-10-23T19:17:14.004Z,14.85
2022-10-23T19:19:45.650Z,16.58
2022-10-23T19:22:15.318Z,19.05
2022-10-23T19:24:51.370Z,23.65
2022-10-23T19:27:20.263Z,21.97
2022-10-23T19:29:50.584Z,16.60
2022-10-23T19:32:18.323Z,18.05
2022-10-23T19:34:46.694Z,20.55
2022-10-23T19:37:16.198Z,18.33
2022-10-23T19:39:44.751Z,21.80
2022-10-23T19:42:12.834Z,20.17
2022-10-23T19:44:40.962Z,28.38
2022-10-23T19:47:08.586Z,29.05
2022-10-23T19:49:40.301Z,28.83
2022-10-23T19:52:09.406Z,30.07
2022-10-23T19:54:40.575Z,23.65
2022-10-23T19:57:08.464Z,23.13
2022-10-23T19:59:37.077Z,18.38
2022-10-23T20:02:05.290Z,18.90
2022-10-23T20:04:34.692Z,16.27
2022-10-23T20:07:02.837Z,19.00
2022-10-23T20:10:45.970Z,19.08
2022-10-23T20:13:19.981Z,17.88
2022-10-23T20:15:51.262Z,25.33
2022-10-23T20:18:20.076Z,18.80
2022-10-23T20:20:48.934Z,16.80
2022-10-23T20:23:18.280Z,17.13
2022-10-23T20:25:47.003Z,14.85
2022-10-23T20:28:15.510Z,14.55
2022-10-23T20:30:46.338Z,14.07
2022-10-23T20:33:17.175Z,16.70
2022-10-23T20:35:46.777Z,17.77
2022-10-23T20:38:14.453Z,15.13
2022-10-23T20:40:43.264Z,19.50
2022-10-23T20:43:11.045Z,14.43
2022-10-23T20:45:40.269Z,14.65
2022-10-23T20:48:10.199Z,13.50
2022-10-23T20:50:39.032Z,14.30
2022-10-23T20:53:06.648Z,15.60
2022-10-23T20:55:34.679Z,17.43
2022-10-23T20:58:02.449Z,16.55
2022-10-23T21:00:30.497Z,15.73
2022-10-23T21:03:01.807Z,14.75
2022-10-23T21:05:29.830Z,16.60
2022-10-23T21:07:57.417Z,15.83
2022-10-23T21:10:31.835Z,17.00
2022-10-23T21:13:17.313Z,14.20
2022-10-23T21:15:45.560Z,14.48
2022-10-23T21:18:27.195Z,14.10
2022-10-23T21:21:02.215Z,13.30
2022-10-23T21:23:29.809Z,14.63
2022-10-23T21:25:57.862Z,13.85
2022-10-23T21:28:25.545Z,19.38
2022-10-23T21:30:54.083Z,15.75
2022-10-23T21:33:22.004Z,23.63
2022-10-23T21:35:58.516Z,21.10
2022-10-23T21:38:32.729Z,22.63
2022-10-23T21:41:08.272Z,17.33
2022-10-23T21:43:36.395Z,17.33
2022-10-23T21:46:11.029Z,17.80
2022-10-23T21:48:39.168Z,22.27
2022-10-23T21:51:07.303Z,25.27
2022-10-23T21:53:35.101Z,35.28
2022-10-23T21:56:05.620Z,35.30
2022-10-23T21:58:33.353Z,36.93
2022-10-23T22:01:01.597Z,34.80
2022-10-23T22:03:29.391Z,28.52
2022-10-23T22:05:58.613Z,29.55
2022-10-23T22:08:26.438Z,28.33
2022-10-23T22:10:54.834Z,27.37
2022-10-23T22:13:22.560Z,25.73
2022-10-23T22:15:50.563Z,24.80
2022-10-23T22:18:18.254Z,30.33
2022-10-23T22:20:46.171Z,25.20
2022-10-23T22:23:14.145Z,26.30
2022-10-23T22:25:42.106Z,25.33
2022-10-23T22:28:09.859Z,24.55
2022-10-23T22:30:37.996Z,26.60
2022-10-23T22:33:05.786Z,32.50
2022-10-23T22:35:33.899Z,48.07
2022-10-23T22:38:01.715Z,44.65
2022-10-23T22:40:30.338Z,55.28
2022-10-23T22:42:58.094Z,67.15
2022-10-23T22:45:26.621Z,68.88
2022-10-23T22:47:54.383Z,63.30
2022-10-23T22:50:22.562Z,64.57
2022-10-23T22:52:50.413Z,66.13
2022-10-23T22:55:18.281Z,73.93
2022-10-23T22:57:46.156Z,73.97
2022-10-23T23:00:15.060Z,97.67
2022-10-23T23:02:42.770Z,62.97
2022-10-23T23:05:12.687Z,51.42
2022-10-23T23:07:40.518Z,41.53
2022-10-23T23:10:08.704Z,56.50
2022-10-23T23:12:38.159Z,34.87
2022-10-23T23:15:06.838Z,54.00
2022-10-23T23:17:34.694Z,42.35
2022-10-23T23:20:02.833Z,50.05
2022-10-23T23:22:30.667Z,42.75
2022-10-23T23:24:58.570Z,52.10
2022-10-23T23:27:27.470Z,61.17
2022-10-23T23:29:58.778Z,54.97
2022-10-23T23:32:26.547Z,58.45
2022-10-23T23:34:54.610Z,66.10
2022-10-23T23:37:22.444Z,100.57
2022-10-23T23:39:50.338Z,85.68
2022-10-23T23:42:18.083Z,62.55
2022-10-23T23:44:55.928Z,86.93
2022-10-23T23:47:30.941Z,101.03
2022-10-23T23:49:58.935Z,67.03
2022-10-23T23:52:26.680Z,48.92
2022-10-23T23:54:54.622Z,53.35
2022-10-23T23:57:22.433Z,60.20
2022-10-23T23:59:50.645Z,71.38
